createdAt,value
2017-01-30T00:00:22.276Z,14.49
2017-01-30T00:00:52.335Z,14.39
2017-01-30T00:01:22.351Z,14.43
2017-01-30T00:01:52.417Z,14.44
2017-01-30T00:02:22.474Z,14.46
2017-01-30T00:02:52.448Z,14.42
2017-01-30T00:03:22.485Z,14.44
2017-01-30T00:03:52.694Z,14.44
2017-01-30T00:04:22.582Z,14.42
2017-01-30T00:04:52.796Z,14.42
2017-01-30T00:05:22.626Z,14.37
2017-01-30T00:05:52.666Z,14.42
2017-01-30T00:06:22.695Z,14.47
2017-01-30T00:06:52.739Z,14.38
2017-01-30T00:07:22.763Z,14.35
2017-01-30T00:07:52.815Z,14.37
2017-01-30T00:08:22.837Z,14.37
2017-01-30T00:08:52.875Z,14.34
2017-01-30T00:09:22.911Z,14.39
2017-01-30T00:09:52.939Z,14.39
2017-01-30T00:10:22.976Z,14.38
2017-01-30T00:10:53.019Z,14.38
2017-01-30T00:11:23.077Z,14.31
2017-01-30T00:11:53.092Z,14.29
2017-01-30T00:12:23.115Z,14.31
2017-01-30T00:12:53.322Z,14.37
2017-01-30T00:13:23.357Z,14.16
2017-01-30T00:13:53.255Z,14.19
2017-01-30T00:14:23.256Z,14.19
2017-01-30T00:14:53.292Z,14.21
2017-01-30T00:15:23.324Z,14.13
2017-01-30T00:15:53.356Z,14.14
2017-01-30T00:16:23.563Z,14.2
2017-01-30T00:16:53.595Z,14.16
2017-01-30T00:17:23.465Z,14.19
2017-01-30T00:17:53.673Z,14.21
2017-01-30T00:18:23.531Z,14.2
2017-01-30T00:18:53.747Z,14.19
2017-01-30T00:19:23.606Z,14.1
2017-01-30T00:19:53.812Z,14.04
2017-01-30T00:20:23.860Z,13.99
2017-01-30T00:20:53.878Z,14.06
2017-01-30T00:21:23.743Z,14.04
2017-01-30T00:21:53.781Z,14.06
2017-01-30T00:22:23.807Z,14.02
2017-01-30T00:22:53.840Z,14.09
2017-01-30T00:23:23.877Z,14.07
2017-01-30T00:23:53.918Z,14.04
2017-01-30T00:24:24.130Z,14.02
2017-01-30T00:24:53.986Z,14.01
2017-01-30T00:25:24.026Z,14.13
2017-01-30T00:25:54.052Z,14.06
2017-01-30T00:26:24.096Z,14.1
2017-01-30T00:26:54.130Z,14.04
2017-01-30T00:27:24.191Z,13.99
2017-01-30T00:27:54.190Z,14.02
2017-01-30T00:28:24.229Z,14.06
2017-01-30T00:28:54.262Z,14.02
2017-01-30T00:29:24.297Z,14.02
2017-01-30T00:29:54.338Z,14.01
2017-01-30T00:30:24.369Z,13.94
2017-01-30T00:30:54.574Z,13.98
2017-01-30T00:31:24.433Z,14.01
2017-01-30T00:31:54.474Z,13.96
2017-01-30T00:32:24.673Z,13.91
2017-01-30T00:32:54.538Z,13.92
2017-01-30T00:33:24.579Z,13.87
2017-01-30T00:33:54.796Z,13.95
2017-01-30T00:34:24.649Z,13.89
2017-01-30T00:34:54.712Z,13.91
2017-01-30T00:35:24.732Z,13.91
2017-01-30T00:35:54.746Z,13.96
2017-01-30T00:36:24.787Z,13.92
2017-01-30T00:36:54.817Z,13.92
2017-01-30T00:37:25.019Z,13.95
2017-01-30T00:37:54.888Z,13.87
2017-01-30T00:38:24.918Z,13.87
2017-01-30T00:38:54.964Z,13.89
2017-01-30T00:39:24.992Z,13.84
2017-01-30T00:39:55.195Z,13.8
2017-01-30T00:40:25.078Z,13.81
2017-01-30T00:40:55.095Z,13.8
2017-01-30T00:41:25.129Z,13.76
2017-01-30T00:41:55.341Z,13.7
2017-01-30T00:42:25.200Z,13.81
2017-01-30T00:42:55.230Z,13.84
2017-01-30T00:43:25.267Z,13.79
2017-01-30T00:43:55.300Z,13.76
2017-01-30T00:44:25.350Z,13.8
2017-01-30T00:44:55.368Z,13.83
2017-01-30T00:45:25.409Z,13.77
2017-01-30T00:45:55.440Z,13.79
2017-01-30T00:46:25.645Z,13.73
2017-01-30T00:46:55.519Z,13.77
2017-01-30T00:47:25.551Z,13.73
2017-01-30T00:47:55.579Z,13.69
2017-01-30T00:48:25.614Z,13.7
2017-01-30T00:48:55.650Z,13.79
2017-01-30T00:49:25.701Z,13.73
2017-01-30T00:49:55.725Z,13.81
2017-01-30T00:50:25.757Z,13.76
2017-01-30T00:50:55.792Z,13.76
2017-01-30T00:51:25.849Z,13.76
2017-01-30T00:51:55.855Z,13.73
2017-01-30T00:52:25.888Z,13.76
2017-01-30T00:52:55.928Z,13.79
2017-01-30T00:53:25.965Z,13.74
2017-01-30T00:53:56.000Z,13.71
2017-01-30T00:54:26.025Z,13.7
2017-01-30T00:54:56.064Z,13.71
2017-01-30T00:55:26.100Z,13.62
2017-01-30T00:55:56.132Z,13.62
2017-01-30T00:56:26.333Z,13.65
2017-01-30T00:56:56.205Z,13.63
2017-01-30T00:57:26.246Z,13.71
2017-01-30T00:57:56.302Z,13.63
2017-01-30T00:58:26.328Z,13.56
2017-01-30T00:58:56.510Z,13.62
2017-01-30T00:59:26.546Z,13.54
2017-01-30T00:59:56.579Z,13.58
2017-01-30T01:00:26.454Z,13.51
2017-01-30T01:00:56.477Z,13.62
2017-01-30T01:01:26.690Z,13.59
2017-01-30T01:01:56.554Z,13.63
2017-01-30T01:02:26.586Z,13.55
2017-01-30T01:02:56.624Z,13.55
2017-01-30T01:03:26.649Z,13.46
2017-01-30T01:03:56.682Z,13.44
2017-01-30T01:04:26.719Z,13.51
2017-01-30T01:04:56.765Z,13.52
2017-01-30T01:05:26.786Z,13.51
2017-01-30T01:05:56.824Z,13.44
2017-01-30T01:06:26.858Z,13.55
2017-01-30T01:06:56.917Z,13.47
2017-01-30T01:07:27.101Z,13.54
2017-01-30T01:07:57.310Z,13.52
2017-01-30T01:08:27.002Z,13.55
2017-01-30T01:08:57.031Z,13.52
2017-01-30T01:09:27.070Z,13.51
2017-01-30T01:09:57.107Z,13.49
2017-01-30T01:10:27.132Z,13.43
2017-01-30T01:10:57.347Z,13.4
2017-01-30T01:11:27.553Z,13.44
2017-01-30T01:11:57.412Z,13.37
2017-01-30T01:12:27.278Z,13.4
2017-01-30T01:12:57.486Z,13.44
2017-01-30T01:13:27.519Z,13.33
2017-01-30T01:13:57.378Z,13.27
2017-01-30T01:14:27.416Z,13.29
2017-01-30T01:14:57.448Z,13.32
2017-01-30T01:15:27.485Z,13.32
2017-01-30T01:15:57.517Z,13.3
2017-01-30T01:16:27.552Z,13.3
2017-01-30T01:16:57.591Z,13.32
2017-01-30T01:17:27.622Z,13.27
2017-01-30T01:17:57.823Z,13.33
2017-01-30T01:18:27.689Z,13.29
2017-01-30T01:18:57.898Z,13.32
2017-01-30T01:19:27.757Z,13.32
2017-01-30T01:19:57.796Z,13.32
2017-01-30T01:20:27.829Z,13.3
2017-01-30T01:20:57.860Z,13.25
2017-01-30T01:21:27.904Z,13.24
2017-01-30T01:21:57.937Z,13.24
2017-01-30T01:22:27.966Z,13.29
2017-01-30T01:22:57.999Z,13.24
2017-01-30T01:23:28.031Z,13.3
2017-01-30T01:23:58.071Z,13.24
2017-01-30T01:24:28.103Z,13.14
2017-01-30T01:24:58.137Z,13.17
2017-01-30T01:25:28.354Z,13.18
2017-01-30T01:25:58.213Z,13.11
2017-01-30T01:26:28.237Z,13.17
2017-01-30T01:26:58.614Z,13.09
2017-01-30T01:27:28.481Z,13.21
2017-01-30T01:27:58.347Z,13.07
2017-01-30T01:28:28.383Z,13.17
2017-01-30T01:28:58.424Z,13.17
2017-01-30T01:29:28.452Z,13.12
2017-01-30T01:29:58.482Z,13.11
2017-01-30T01:30:28.687Z,13.09
2017-01-30T01:30:58.557Z,13.07
2017-01-30T01:31:28.587Z,13.12
2017-01-30T01:31:58.625Z,13.11
2017-01-30T01:32:28.652Z,13.11
2017-01-30T01:32:58.696Z,13.11
2017-01-30T01:33:28.725Z,13.02
2017-01-30T01:33:58.943Z,13.07
2017-01-30T01:34:28.790Z,13.07
2017-01-30T01:34:58.841Z,13.12
2017-01-30T01:35:28.864Z,13.02
2017-01-30T01:35:58.894Z,13.02
2017-01-30T01:36:28.933Z,12.99
2017-01-30T01:36:58.971Z,13.04
2017-01-30T01:37:29.006Z,12.96
2017-01-30T01:37:59.048Z,12.97
2017-01-30T01:38:29.071Z,13.04
2017-01-30T01:38:59.114Z,13.03
2017-01-30T01:39:29.324Z,13.02
2017-01-30T01:39:59.513Z,13
2017-01-30T01:40:29.211Z,12.99
2017-01-30T01:40:59.243Z,12.95
2017-01-30T01:41:29.452Z,12.95
2017-01-30T01:41:59.310Z,12.99
2017-01-30T01:42:29.346Z,12.97
2017-01-30T01:42:59.382Z,12.96
2017-01-30T01:43:29.409Z,12.97
2017-01-30T01:43:59.453Z,12.99
2017-01-30T01:44:29.654Z,12.93
2017-01-30T01:44:59.528Z,12.93
2017-01-30T01:45:29.548Z,12.92
2017-01-30T01:45:59.585Z,12.97
2017-01-30T01:46:29.626Z,12.92
2017-01-30T01:46:59.660Z,12.82
2017-01-30T01:47:29.689Z,12.88
2017-01-30T01:47:59.724Z,12.85
2017-01-30T01:48:29.757Z,12.88
2017-01-30T01:48:59.793Z,12.85
2017-01-30T01:49:29.826Z,12.82
2017-01-30T01:49:59.865Z,12.84
2017-01-30T01:50:29.896Z,12.93
2017-01-30T01:50:59.930Z,12.87
2017-01-30T01:51:29.965Z,12.81
2017-01-30T01:52:00.000Z,12.89
2017-01-30T01:52:30.204Z,12.81
2017-01-30T01:53:00.074Z,12.84
2017-01-30T01:53:30.275Z,12.81
2017-01-30T01:54:00.150Z,12.81
2017-01-30T01:54:30.174Z,12.82
2017-01-30T01:55:00.207Z,12.81
2017-01-30T01:55:30.248Z,12.77
2017-01-30T01:56:00.451Z,12.78
2017-01-30T01:56:30.307Z,12.75
2017-01-30T01:57:00.340Z,12.75
2017-01-30T01:57:30.380Z,12.75
2017-01-30T01:58:00.418Z,12.74
2017-01-30T01:58:30.626Z,12.77
2017-01-30T01:59:00.484Z,12.75
2017-01-30T01:59:30.690Z,12.74
2017-01-30T02:00:00.561Z,12.67
2017-01-30T02:00:30.590Z,12.6
2017-01-30T02:01:00.625Z,12.63
2017-01-30T02:01:30.655Z,12.69
2017-01-30T02:02:00.687Z,12.64
2017-01-30T02:02:30.720Z,12.59
2017-01-30T02:03:00.765Z,12.59
2017-01-30T02:03:30.794Z,12.67
2017-01-30T02:04:01.006Z,12.56
2017-01-30T02:04:30.865Z,12.6
2017-01-30T02:05:00.895Z,12.6
2017-01-30T02:05:30.935Z,12.59
2017-01-30T02:06:00.971Z,12.59
2017-01-30T02:06:30.996Z,12.62
2017-01-30T02:07:01.211Z,12.57
2017-01-30T02:07:31.072Z,12.63
2017-01-30T02:08:01.099Z,12.57
2017-01-30T02:08:31.135Z,12.54
2017-01-30T02:09:01.346Z,12.59
2017-01-30T02:09:31.378Z,12.59
2017-01-30T02:10:01.239Z,12.57
2017-01-30T02:10:31.280Z,12.67
2017-01-30T02:11:01.318Z,12.56
2017-01-30T02:11:31.339Z,12.6
2017-01-30T02:12:01.374Z,12.54
2017-01-30T02:12:31.412Z,12.57
2017-01-30T02:13:01.624Z,12.62
2017-01-30T02:13:31.510Z,12.6
2017-01-30T02:14:01.512Z,12.54
2017-01-30T02:14:31.550Z,12.56
2017-01-30T02:15:01.587Z,12.62
2017-01-30T02:15:31.791Z,12.51
2017-01-30T02:16:01.674Z,12.57
2017-01-30T02:16:31.687Z,12.6
2017-01-30T02:17:01.721Z,12.6
2017-01-30T02:17:32.062Z,12.6
2017-01-30T02:18:01.787Z,12.63
2017-01-30T02:18:31.988Z,12.59
2017-01-30T02:19:01.859Z,12.57
2017-01-30T02:19:31.890Z,12.52
2017-01-30T02:20:02.097Z,12.48
2017-01-30T02:20:31.957Z,12.49
2017-01-30T02:21:02.169Z,12.49
2017-01-30T02:21:32.028Z,12.45
2017-01-30T02:22:02.236Z,12.48
2017-01-30T02:22:32.130Z,12.46
2017-01-30T02:23:02.129Z,12.49
2017-01-30T02:23:32.161Z,12.52
2017-01-30T02:24:02.372Z,12.51
2017-01-30T02:24:32.237Z,12.42
2017-01-30T02:25:02.443Z,12.41
2017-01-30T02:25:32.304Z,12.48
2017-01-30T02:26:02.346Z,12.45
2017-01-30T02:26:32.542Z,12.39
2017-01-30T02:27:02.577Z,12.37
2017-01-30T02:27:32.443Z,12.39
2017-01-30T02:28:02.642Z,12.39
2017-01-30T02:28:32.504Z,12.26
2017-01-30T02:29:02.713Z,12.29
2017-01-30T02:29:32.750Z,12.42
2017-01-30T02:30:02.646Z,12.3
2017-01-30T02:30:32.831Z,12.3
2017-01-30T02:31:02.694Z,12.3
2017-01-30T02:31:32.726Z,12.31
2017-01-30T02:32:02.746Z,12.31
2017-01-30T02:32:32.956Z,12.33
2017-01-30T02:33:02.819Z,12.37
2017-01-30T02:33:32.851Z,12.34
2017-01-30T02:34:03.054Z,12.26
2017-01-30T02:34:33.179Z,12.3
2017-01-30T02:35:03.125Z,12.29
2017-01-30T02:35:32.993Z,12.42
2017-01-30T02:36:03.040Z,12.39
2017-01-30T02:36:33.054Z,12.38
2017-01-30T02:37:03.086Z,12.3
2017-01-30T02:37:33.123Z,12.33
2017-01-30T02:38:03.334Z,12.3
2017-01-30T02:38:33.361Z,12.3
2017-01-30T02:39:03.399Z,12.3
2017-01-30T02:39:33.264Z,12.3
2017-01-30T02:40:03.329Z,12.3
2017-01-30T02:40:33.330Z,12.3
2017-01-30T02:41:03.538Z,12.29
2017-01-30T02:41:33.566Z,12.31
2017-01-30T02:42:03.609Z,12.26
2017-01-30T02:42:33.469Z,12.29
2017-01-30T02:43:03.501Z,12.24
2017-01-30T02:43:33.533Z,12.3
2017-01-30T02:44:03.574Z,12.19
2017-01-30T02:44:33.772Z,12.3
2017-01-30T02:45:03.992Z,12.15
2017-01-30T02:45:33.841Z,12.19
2017-01-30T02:46:03.712Z,12.19
2017-01-30T02:46:33.919Z,12.11
2017-01-30T02:47:03.808Z,12.19
2017-01-30T02:47:33.811Z,12.15
2017-01-30T02:48:03.845Z,12.16
2017-01-30T02:48:33.907Z,12.13
2017-01-30T02:49:03.918Z,12.2
2017-01-30T02:49:33.944Z,12.15
2017-01-30T02:50:03.979Z,12.13
2017-01-30T02:50:34.017Z,12.26
2017-01-30T02:51:04.256Z,12.15
2017-01-30T02:51:34.088Z,12.13
2017-01-30T02:52:04.115Z,12.13
2017-01-30T02:52:34.148Z,12.15
2017-01-30T02:53:04.185Z,12.15
2017-01-30T02:53:34.217Z,12.2
2017-01-30T02:54:04.251Z,12.15
2017-01-30T02:54:34.299Z,12.12
2017-01-30T02:55:04.494Z,12.15
2017-01-30T02:55:34.357Z,12.15
2017-01-30T02:56:04.389Z,12.12
2017-01-30T02:56:34.421Z,12.12
2017-01-30T02:57:04.461Z,12.06
2017-01-30T02:57:34.528Z,12.05
2017-01-30T02:58:04.701Z,12.05
2017-01-30T02:58:34.562Z,12.09
2017-01-30T02:59:04.591Z,12.06
2017-01-30T02:59:34.627Z,12.06
2017-01-30T03:00:05.014Z,12.08
2017-01-30T03:00:34.706Z,12.01
2017-01-30T03:01:04.739Z,12.12
2017-01-30T03:01:34.767Z,12.04
2017-01-30T03:02:04.970Z,12.08
2017-01-30T03:02:34.832Z,12.02
2017-01-30T03:03:05.280Z,12.11
2017-01-30T03:03:34.905Z,12.11
2017-01-30T03:04:04.944Z,11.99
2017-01-30T03:04:34.979Z,12.01
2017-01-30T03:05:05.019Z,11.99
2017-01-30T03:05:35.450Z,12.06
2017-01-30T03:06:05.070Z,12.01
2017-01-30T03:06:35.281Z,12.06
2017-01-30T03:07:05.180Z,12.01
2017-01-30T03:07:35.175Z,12.02
2017-01-30T03:08:05.215Z,11.94
2017-01-30T03:08:35.246Z,11.9
2017-01-30T03:09:05.282Z,11.96
2017-01-30T03:09:35.483Z,11.87
2017-01-30T03:10:05.352Z,11.9
2017-01-30T03:10:35.574Z,12.01
2017-01-30T03:11:05.416Z,11.94
2017-01-30T03:11:35.498Z,11.93
2017-01-30T03:12:05.494Z,11.89
2017-01-30T03:12:35.514Z,11.97
2017-01-30T03:13:05.550Z,11.85
2017-01-30T03:13:35.585Z,11.87
2017-01-30T03:14:05.618Z,11.94
2017-01-30T03:14:35.828Z,11.85
2017-01-30T03:15:05.863Z,11.83
2017-01-30T03:15:35.898Z,11.85
2017-01-30T03:16:05.757Z,11.87
2017-01-30T03:16:35.798Z,11.94
2017-01-30T03:17:06.003Z,11.85
2017-01-30T03:17:35.869Z,11.85
2017-01-30T03:18:05.899Z,11.87
2017-01-30T03:18:35.938Z,11.96
2017-01-30T03:19:05.969Z,11.82
2017-01-30T03:19:36.167Z,11.9
2017-01-30T03:20:06.027Z,11.83
2017-01-30T03:20:36.061Z,11.8
2017-01-30T03:21:06.096Z,11.83
2017-01-30T03:21:36.135Z,11.82
2017-01-30T03:22:06.165Z,11.77
2017-01-30T03:22:36.203Z,11.85
2017-01-30T03:23:06.233Z,11.83
2017-01-30T03:23:36.267Z,11.78
2017-01-30T03:24:06.651Z,11.8
2017-01-30T03:24:36.342Z,11.86
2017-01-30T03:25:06.551Z,11.85
2017-01-30T03:25:36.405Z,11.83
2017-01-30T03:26:06.617Z,11.8
2017-01-30T03:26:36.646Z,11.85
2017-01-30T03:27:06.684Z,11.85
2017-01-30T03:27:36.723Z,11.75
2017-01-30T03:28:06.580Z,11.82
2017-01-30T03:28:36.611Z,11.82
2017-01-30T03:29:06.647Z,11.85
2017-01-30T03:29:36.678Z,11.8
2017-01-30T03:30:06.712Z,11.68
2017-01-30T03:30:36.750Z,11.82
2017-01-30T03:31:06.783Z,11.68
2017-01-30T03:31:36.812Z,11.7
2017-01-30T03:32:06.849Z,11.75
2017-01-30T03:32:36.892Z,11.74
2017-01-30T03:33:06.916Z,11.8
2017-01-30T03:33:36.951Z,11.7
2017-01-30T03:34:06.986Z,11.65
2017-01-30T03:34:37.191Z,11.72
2017-01-30T03:35:07.062Z,11.74
2017-01-30T03:35:37.089Z,11.68
2017-01-30T03:36:07.126Z,11.7
2017-01-30T03:36:37.153Z,11.67
2017-01-30T03:37:07.189Z,11.65
2017-01-30T03:37:37.397Z,11.65
2017-01-30T03:38:07.289Z,11.62
2017-01-30T03:38:37.471Z,11.62
2017-01-30T03:39:07.323Z,11.65
2017-01-30T03:39:37.362Z,11.59
2017-01-30T03:40:07.394Z,11.62
2017-01-30T03:40:37.439Z,11.61
2017-01-30T03:41:07.648Z,11.67
2017-01-30T03:41:37.496Z,11.67
2017-01-30T03:42:07.536Z,11.64
2017-01-30T03:42:37.573Z,11.57
2017-01-30T03:43:07.596Z,11.56
2017-01-30T03:43:37.634Z,11.57
2017-01-30T03:44:07.835Z,11.5
2017-01-30T03:44:37.698Z,11.5
2017-01-30T03:45:07.735Z,11.59
2017-01-30T03:45:37.768Z,11.54
2017-01-30T03:46:07.807Z,11.59
2017-01-30T03:46:37.871Z,11.54
2017-01-30T03:47:07.871Z,11.49
2017-01-30T03:47:37.905Z,11.53
2017-01-30T03:48:07.938Z,11.52
2017-01-30T03:48:37.980Z,11.49
2017-01-30T03:49:08.007Z,11.47
2017-01-30T03:49:38.058Z,11.5
2017-01-30T03:50:08.087Z,11.56
2017-01-30T03:50:38.111Z,11.52
2017-01-30T03:51:08.141Z,11.53
2017-01-30T03:51:38.176Z,11.5
2017-01-30T03:52:08.379Z,11.62
2017-01-30T03:52:38.246Z,11.5
2017-01-30T03:53:08.276Z,11.5
2017-01-30T03:53:38.313Z,11.61
2017-01-30T03:54:08.346Z,11.5
2017-01-30T03:54:38.380Z,11.5
2017-01-30T03:55:08.435Z,11.53
2017-01-30T03:55:38.484Z,11.53
2017-01-30T03:56:08.482Z,11.49
2017-01-30T03:56:38.517Z,11.5
2017-01-30T03:57:08.553Z,11.47
2017-01-30T03:57:38.583Z,11.53
2017-01-30T03:58:08.620Z,11.46
2017-01-30T03:58:38.654Z,11.49
2017-01-30T03:59:08.863Z,11.56
2017-01-30T03:59:38.732Z,11.53
2017-01-30T04:00:08.760Z,11.39
2017-01-30T04:00:38.796Z,11.5
2017-01-30T04:01:08.822Z,11.54
2017-01-30T04:01:38.869Z,11.46
2017-01-30T04:02:08.893Z,11.52
2017-01-30T04:02:39.092Z,11.52
2017-01-30T04:03:08.972Z,11.56
2017-01-30T04:03:39.010Z,11.5
2017-01-30T04:04:09.032Z,11.52
2017-01-30T04:04:39.229Z,11.5
2017-01-30T04:05:09.098Z,11.56
2017-01-30T04:05:39.143Z,11.5
2017-01-30T04:06:09.166Z,11.46
2017-01-30T04:06:39.366Z,11.49
2017-01-30T04:07:09.230Z,11.53
2017-01-30T04:07:39.266Z,11.56
2017-01-30T04:08:09.470Z,11.47
2017-01-30T04:08:39.340Z,11.44
2017-01-30T04:09:09.375Z,11.5
2017-01-30T04:09:39.579Z,11.54
2017-01-30T04:10:09.606Z,11.49
2017-01-30T04:10:39.469Z,11.5
2017-01-30T04:11:09.510Z,11.44
2017-01-30T04:11:39.542Z,11.52
2017-01-30T04:12:09.575Z,11.44
2017-01-30T04:12:39.605Z,11.46
2017-01-30T04:13:09.639Z,11.54
2017-01-30T04:13:39.677Z,11.56
2017-01-30T04:14:09.707Z,11.52
2017-01-30T04:14:39.741Z,11.49
2017-01-30T04:15:09.777Z,11.44
2017-01-30T04:15:39.809Z,11.47
2017-01-30T04:16:09.840Z,11.46
2017-01-30T04:16:39.878Z,11.49
2017-01-30T04:17:09.909Z,11.38
2017-01-30T04:17:40.120Z,11.5
2017-01-30T04:18:09.985Z,11.44
2017-01-30T04:18:40.022Z,11.43
2017-01-30T04:19:10.051Z,11.43
2017-01-30T04:19:40.253Z,11.43
2017-01-30T04:20:10.119Z,11.44
2017-01-30T04:20:40.328Z,11.46
2017-01-30T04:21:10.191Z,11.44
2017-01-30T04:21:40.219Z,11.41
2017-01-30T04:22:10.253Z,11.47
2017-01-30T04:22:40.288Z,11.41
2017-01-30T04:23:10.316Z,11.47
2017-01-30T04:23:40.354Z,11.44
2017-01-30T04:24:10.567Z,11.5
2017-01-30T04:24:40.594Z,11.52
2017-01-30T04:25:10.463Z,11.36
2017-01-30T04:25:40.493Z,11.43
2017-01-30T04:26:10.541Z,11.49
2017-01-30T04:26:40.735Z,11.47
2017-01-30T04:27:10.593Z,11.44
2017-01-30T04:27:40.620Z,11.44
2017-01-30T04:28:10.659Z,11.43
2017-01-30T04:28:40.695Z,11.36
2017-01-30T04:29:10.729Z,11.41
2017-01-30T04:29:40.767Z,11.43
2017-01-30T04:30:10.794Z,11.47
2017-01-30T04:30:41.001Z,11.49
2017-01-30T04:31:11.036Z,11.49
2017-01-30T04:31:40.899Z,11.49
2017-01-30T04:32:10.932Z,11.44
2017-01-30T04:32:40.961Z,11.44
2017-01-30T04:33:11.001Z,11.39
2017-01-30T04:33:41.033Z,11.41
2017-01-30T04:34:11.241Z,11.44
2017-01-30T04:34:41.102Z,11.35
2017-01-30T04:35:11.136Z,11.38
2017-01-30T04:35:41.341Z,11.35
2017-01-30T04:36:11.214Z,11.39
2017-01-30T04:36:41.239Z,11.5
2017-01-30T04:37:11.269Z,11.5
2017-01-30T04:37:41.478Z,11.46
2017-01-30T04:38:11.336Z,11.41
2017-01-30T04:38:41.373Z,11.41
2017-01-30T04:39:11.409Z,11.36
2017-01-30T04:39:41.611Z,11.29
2017-01-30T04:40:11.472Z,11.35
2017-01-30T04:40:41.507Z,11.39
2017-01-30T04:41:11.541Z,11.36
2017-01-30T04:41:41.578Z,11.31
2017-01-30T04:42:11.608Z,11.35
2017-01-30T04:42:41.818Z,11.31
2017-01-30T04:43:11.677Z,11.36
2017-01-30T04:43:41.715Z,11.35
2017-01-30T04:44:11.744Z,11.35
2017-01-30T04:44:41.781Z,11.31
2017-01-30T04:45:11.817Z,11.29
2017-01-30T04:45:41.852Z,11.39
2017-01-30T04:46:11.894Z,11.31
2017-01-30T04:46:41.918Z,11.31
2017-01-30T04:47:11.954Z,11.31
2017-01-30T04:47:42.152Z,11.32
2017-01-30T04:48:12.015Z,11.35
2017-01-30T04:48:42.059Z,11.35
2017-01-30T04:49:12.085Z,11.29
2017-01-30T04:49:42.132Z,11.38
2017-01-30T04:50:12.324Z,11.35
2017-01-30T04:50:42.360Z,11.32
2017-01-30T04:51:12.399Z,11.28
2017-01-30T04:51:42.255Z,11.27
2017-01-30T04:52:12.288Z,11.24
2017-01-30T04:52:42.358Z,11.24
2017-01-30T04:53:12.528Z,11.25
2017-01-30T04:53:42.392Z,11.25
2017-01-30T04:54:12.436Z,11.21
2017-01-30T04:54:42.456Z,11.24
2017-01-30T04:55:12.503Z,11.19
2017-01-30T04:55:42.529Z,11.17
2017-01-30T04:56:12.566Z,11.21
2017-01-30T04:56:42.624Z,11.19
2017-01-30T04:57:12.630Z,11.27
2017-01-30T04:57:42.835Z,11.27
2017-01-30T04:58:12.708Z,11.16
2017-01-30T04:58:42.728Z,11.21
2017-01-30T04:59:12.764Z,11.24
2017-01-30T04:59:42.967Z,11.2
2017-01-30T05:00:12.829Z,11.13
2017-01-30T05:00:42.867Z,11.16
2017-01-30T05:01:12.902Z,11.17
2017-01-30T05:01:42.948Z,11.16
2017-01-30T05:02:12.968Z,11.17
2017-01-30T05:02:43.171Z,11.2
2017-01-30T05:03:13.044Z,11.16
2017-01-30T05:03:43.068Z,11.2
2017-01-30T05:04:13.117Z,11.2
2017-01-30T05:04:43.154Z,11.2
2017-01-30T05:05:13.170Z,11.2
2017-01-30T05:05:43.222Z,11.21
2017-01-30T05:06:13.267Z,11.17
2017-01-30T05:06:43.268Z,11.19
2017-01-30T05:07:13.306Z,11.21
2017-01-30T05:07:43.347Z,11.19
2017-01-30T05:08:13.372Z,11.14
2017-01-30T05:08:43.409Z,11.17
2017-01-30T05:09:13.459Z,11.14
2017-01-30T05:09:43.474Z,11.11
2017-01-30T05:10:13.682Z,11.13
2017-01-30T05:10:43.544Z,11.02
2017-01-30T05:11:13.579Z,11.17
2017-01-30T05:11:43.608Z,11.09
2017-01-30T05:12:13.647Z,11.11
2017-01-30T05:12:43.691Z,11.03
2017-01-30T05:13:13.711Z,11.03
2017-01-30T05:13:43.744Z,11.07
2017-01-30T05:14:13.783Z,11.03
2017-01-30T05:14:43.817Z,11.03
2017-01-30T05:15:13.850Z,11.06
2017-01-30T05:15:43.887Z,11.06
2017-01-30T05:16:13.918Z,11.06
2017-01-30T05:16:43.960Z,11.11
2017-01-30T05:17:13.989Z,11.09
2017-01-30T05:17:44.196Z,10.99
2017-01-30T05:18:14.056Z,11.03
2017-01-30T05:18:44.268Z,11.07
2017-01-30T05:19:14.121Z,11.02
2017-01-30T05:19:44.157Z,10.96
2017-01-30T05:20:14.191Z,11.02
2017-01-30T05:20:44.226Z,10.98
2017-01-30T05:21:14.433Z,11.07
2017-01-30T05:21:44.297Z,10.98
2017-01-30T05:22:14.329Z,10.94
2017-01-30T05:22:44.527Z,11.03
2017-01-30T05:23:14.420Z,10.96
2017-01-30T05:23:44.431Z,10.98
2017-01-30T05:24:14.459Z,10.98
2017-01-30T05:24:44.704Z,10.96
2017-01-30T05:25:14.528Z,10.96
2017-01-30T05:25:44.560Z,10.98
2017-01-30T05:26:14.599Z,10.98
2017-01-30T05:26:44.631Z,10.95
2017-01-30T05:27:14.665Z,10.92
2017-01-30T05:27:44.701Z,10.99
2017-01-30T05:28:14.726Z,10.94
2017-01-30T05:28:44.761Z,11.03
2017-01-30T05:29:14.798Z,10.94
2017-01-30T05:29:45.150Z,10.88
2017-01-30T05:30:14.870Z,10.95
2017-01-30T05:30:44.900Z,10.98
2017-01-30T05:31:15.102Z,10.91
2017-01-30T05:31:44.967Z,10.98
2017-01-30T05:32:15.000Z,10.94
2017-01-30T05:32:45.211Z,10.96
2017-01-30T05:33:15.072Z,10.95
2017-01-30T05:33:45.447Z,10.94
2017-01-30T05:34:15.137Z,10.98
2017-01-30T05:34:45.168Z,10.94
2017-01-30T05:35:15.375Z,10.89
2017-01-30T05:35:45.249Z,10.88
2017-01-30T05:36:15.270Z,10.94
2017-01-30T05:36:45.310Z,10.92
2017-01-30T05:37:15.335Z,10.96
2017-01-30T05:37:45.377Z,10.95
2017-01-30T05:38:15.414Z,10.92
2017-01-30T05:38:45.441Z,10.86
2017-01-30T05:39:15.652Z,10.88
2017-01-30T05:39:45.513Z,10.88
2017-01-30T05:40:15.545Z,10.88
2017-01-30T05:40:45.577Z,10.91
2017-01-30T05:41:15.609Z,10.86
2017-01-30T05:41:45.646Z,10.88
2017-01-30T05:42:15.682Z,10.92
2017-01-30T05:42:45.880Z,10.84
2017-01-30T05:43:15.770Z,10.91
2017-01-30T05:43:45.784Z,10.89
2017-01-30T05:44:15.825Z,10.92
2017-01-30T05:44:45.848Z,10.84
2017-01-30T05:45:15.885Z,10.96
2017-01-30T05:45:45.926Z,10.86
2017-01-30T05:46:15.950Z,10.89
2017-01-30T05:46:46.157Z,10.89
2017-01-30T05:47:16.023Z,10.83
2017-01-30T05:47:46.049Z,10.78
2017-01-30T05:48:16.082Z,10.86
2017-01-30T05:48:46.127Z,10.88
2017-01-30T05:49:16.155Z,10.88
2017-01-30T05:49:46.187Z,10.88
2017-01-30T05:50:16.224Z,10.88
2017-01-30T05:50:46.260Z,10.83
2017-01-30T05:51:16.468Z,10.94
2017-01-30T05:51:46.323Z,10.8
2017-01-30T05:52:16.368Z,10.88
2017-01-30T05:52:46.388Z,10.78
2017-01-30T05:53:16.427Z,10.77
2017-01-30T05:53:46.715Z,10.88
2017-01-30T05:54:16.507Z,10.81
2017-01-30T05:54:46.527Z,10.84
2017-01-30T05:55:16.561Z,10.77
2017-01-30T05:55:46.762Z,10.77
2017-01-30T05:56:16.627Z,10.84
2017-01-30T05:56:46.668Z,10.78
2017-01-30T05:57:16.699Z,10.77
2017-01-30T05:57:46.727Z,10.88
2017-01-30T05:58:16.765Z,10.83
2017-01-30T05:58:46.803Z,10.83
2017-01-30T05:59:16.833Z,10.86
2017-01-30T05:59:46.861Z,10.83
2017-01-30T06:00:17.073Z,10.81
2017-01-30T06:00:46.931Z,10.84
2017-01-30T06:01:16.976Z,10.88
2017-01-30T06:01:47.171Z,10.84
2017-01-30T06:02:17.033Z,10.8
2017-01-30T06:02:47.067Z,10.77
2017-01-30T06:03:17.105Z,10.77
2017-01-30T06:03:47.147Z,10.78
2017-01-30T06:04:17.171Z,10.71
2017-01-30T06:04:47.203Z,10.81
2017-01-30T06:05:17.239Z,10.77
2017-01-30T06:05:47.272Z,10.78
2017-01-30T06:06:17.301Z,10.83
2017-01-30T06:06:47.339Z,10.8
2017-01-30T06:07:17.371Z,10.84
2017-01-30T06:07:47.614Z,10.8
2017-01-30T06:08:17.442Z,10.77
2017-01-30T06:08:47.470Z,10.66
2017-01-30T06:09:17.693Z,10.74
2017-01-30T06:09:47.539Z,10.77
2017-01-30T06:10:17.579Z,10.78
2017-01-30T06:10:47.606Z,10.77
2017-01-30T06:11:17.642Z,10.77
2017-01-30T06:11:47.681Z,10.81
2017-01-30T06:12:17.708Z,10.73
2017-01-30T06:12:47.747Z,10.78
2017-01-30T06:13:18.137Z,10.76
2017-01-30T06:13:47.811Z,10.74
2017-01-30T06:14:17.850Z,10.74
2017-01-30T06:14:47.882Z,10.81
2017-01-30T06:15:17.908Z,10.83
2017-01-30T06:15:47.948Z,10.74
2017-01-30T06:16:18.155Z,10.8
2017-01-30T06:16:48.019Z,10.76
2017-01-30T06:17:18.048Z,10.77
2017-01-30T06:17:48.085Z,10.74
2017-01-30T06:18:18.124Z,10.8
2017-01-30T06:18:48.150Z,10.78
2017-01-30T06:19:18.184Z,10.77
2017-01-30T06:19:48.217Z,10.84
2017-01-30T06:20:18.257Z,10.74
2017-01-30T06:20:48.285Z,10.81
2017-01-30T06:21:18.361Z,10.78
2017-01-30T06:21:48.352Z,10.77
2017-01-30T06:22:18.387Z,10.8
2017-01-30T06:22:48.420Z,10.74
2017-01-30T06:23:18.478Z,10.81
2017-01-30T06:23:48.492Z,10.78
2017-01-30T06:24:18.692Z,10.76
2017-01-30T06:24:48.554Z,10.7
2017-01-30T06:25:18.761Z,10.74
2017-01-30T06:25:48.624Z,10.84
2017-01-30T06:26:18.756Z,10.78
2017-01-30T06:26:48.695Z,10.76
2017-01-30T06:27:18.726Z,10.8
2017-01-30T06:27:49.109Z,10.81
2017-01-30T06:28:18.802Z,10.77